createdAt,value
2022-07-28T00:02:05.032Z,99999.63
2022-07-28T00:04:34.326Z,100002.09
2022-07-28T00:07:03.328Z,99997.81
2022-07-28T00:09:33.386Z,100001.84
2022-07-28T00:12:02.192Z,99991.41
2022-07-28T00:14:31.328Z,99988.50
2022-07-28T00:17:00.601Z,99991.44
2022-07-28T00:19:29.329Z,99981.28
2022-07-28T00:21:57.971Z,99987.25
2022-07-28T00:24:26.651Z,99979.47
2022-07-28T00:26:56.642Z,99981.13
2022-07-28T00:29:25.340Z,99976.31
2022-07-28T00:32:13.991Z,99984.16
2022-07-28T00:34:42.978Z,99984.44
2022-07-28T00:37:14.550Z,99981.53
2022-07-28T00:39:44.016Z,99980.19
2022-07-28T00:42:14.105Z,99982.97
2022-07-28T00:44:42.735Z,99987.53
2022-07-28T00:47:12.045Z,99972.78
2022-07-28T00:49:41.132Z,99974.94
2022-07-28T00:52:11.203Z,99967.41
2022-07-28T00:54:40.155Z,99967.72
2022-07-28T00:57:08.895Z,99961.81
2022-07-28T00:59:38.982Z,99964.81
2022-07-28T01:02:08.042Z,99968.84
2022-07-28T01:04:36.935Z,99968.06
2022-07-28T01:07:22.688Z,99968.91
2022-07-28T01:10:00.750Z,99960.06
2022-07-28T01:12:47.189Z,99963.31
2022-07-28T01:15:25.788Z,99964.41
2022-07-28T01:18:04.271Z,99971.66
2022-07-28T01:20:40.143Z,99968.44
2022-07-28T01:23:31.340Z,99957.78
2022-07-28T01:26:21.076Z,99961.81
2022-07-28T01:29:04.753Z,99957.53
2022-07-28T01:31:40.989Z,99962.06
2022-07-28T01:34:16.764Z,99954.03
2022-07-28T01:36:52.216Z,99951.09
2022-07-28T01:39:23.500Z,99951.41
2022-07-28T01:41:54.815Z,99949.28
2022-07-28T01:44:26.259Z,99941.53
2022-07-28T01:46:59.094Z,99934.84
2022-07-28T01:49:29.510Z,99946.66
2022-07-28T01:51:58.977Z,99943.44
2022-07-28T01:54:28.946Z,99936.78
2022-07-28T01:56:58.785Z,99945.91
2022-07-28T01:59:29.582Z,99947.00
2022-07-28T02:02:03.859Z,99945.94
2022-07-28T02:04:35.227Z,99945.41
2022-07-28T02:07:05.534Z,99935.00
2022-07-28T02:09:36.294Z,99937.94
2022-07-28T02:12:06.224Z,99931.78
2022-07-28T02:14:37.448Z,99911.69
2022-07-28T02:17:14.447Z,99917.06
2022-07-28T02:19:46.704Z,99913.06
2022-07-28T02:22:16.502Z,99909.84
2022-07-28T02:24:47.191Z,99907.97
2022-07-28T02:27:23.371Z,99906.38
2022-07-28T02:29:58.857Z,99913.09
2022-07-28T02:32:40.850Z,99904.25
2022-07-28T02:35:13.548Z,99916.06
2022-07-28T02:37:51.494Z,99917.16
2022-07-28T02:40:22.971Z,99912.03
2022-07-28T02:42:53.790Z,99911.53
2022-07-28T02:45:27.557Z,99906.16
2022-07-28T02:48:02.819Z,99894.63
2022-07-28T02:50:31.615Z,99894.63
2022-07-28T02:53:15.540Z,99899.47
2022-07-28T02:55:48.335Z,99890.63
2022-07-28T02:58:18.068Z,99896.28
2022-07-28T03:00:47.677Z,99897.34
2022-07-28T03:03:18.756Z,99900.81
2022-07-28T03:05:48.312Z,99900.81
2022-07-28T03:08:18.635Z,99901.91
2022-07-28T03:10:47.552Z,99895.75
2022-07-28T03:13:16.214Z,99904.31
2022-07-28T03:15:44.975Z,99910.75
2022-07-28T03:18:13.762Z,99907.00
2022-07-28T03:20:43.826Z,99909.69
2022-07-28T03:23:12.509Z,99917.72
2022-07-28T03:25:45.868Z,99915.06
2022-07-28T03:28:19.590Z,99907.00
2022-07-28T03:30:57.295Z,99912.38
2022-07-28T03:33:26.488Z,99911.28
2022-07-28T03:35:59.697Z,99913.97
2022-07-28T03:38:35.490Z,99901.66
2022-07-28T03:41:05.372Z,99910.50
2022-07-28T03:43:35.661Z,99912.06
2022-07-28T03:46:06.592Z,99905.91
2022-07-28T03:48:37.483Z,99906.19
2022-07-28T03:51:07.608Z,99905.38
2022-07-28T03:53:36.549Z,99908.06
2022-07-28T03:56:05.965Z,99902.69
2022-07-28T03:58:34.748Z,99899.53
2022-07-28T04:01:03.447Z,99903.00
2022-07-28T04:03:36.609Z,99899.53
2022-07-28T04:06:14.003Z,99902.19
2022-07-28T04:08:43.225Z,99904.09
2022-07-28T04:11:11.924Z,99902.47
2022-07-28T04:13:40.687Z,99904.34
2022-07-28T04:16:09.436Z,99898.19
2022-07-28T04:18:38.207Z,99905.44
2022-07-28T04:21:08.528Z,99907.03
2022-07-28T04:23:38.569Z,99900.06
2022-07-28T04:26:07.527Z,99896.31
2022-07-28T04:28:36.183Z,99896.31
2022-07-28T04:31:04.953Z,99892.03
2022-07-28T04:33:33.686Z,99888.81
2022-07-28T04:36:02.790Z,99888.56
2022-07-28T04:38:31.500Z,99888.56
2022-07-28T04:41:01.559Z,99887.22
2022-07-28T04:43:30.243Z,99884.00
2022-07-28T04:45:59.936Z,99882.16
2022-07-28T04:48:28.573Z,99888.59
2022-07-28T04:50:57.389Z,99887.00
2022-07-28T04:53:26.013Z,99885.09
2022-07-28T04:55:57.136Z,99890.47
2022-07-28T04:58:27.878Z,99887.78
2022-07-28T05:00:59.710Z,99891.25
2022-07-28T05:03:31.610Z,99892.06
2022-07-28T05:06:05.082Z,99892.88
2022-07-28T05:08:33.737Z,99889.13
2022-07-28T05:11:02.503Z,99891.50
2022-07-28T05:13:34.247Z,99888.81
2022-07-28T05:16:03.819Z,99886.66
2022-07-28T05:18:32.585Z,99889.34
2022-07-28T05:21:01.252Z,99893.38
2022-07-28T05:23:30.025Z,99894.16
2022-07-28T05:25:58.819Z,99898.13
2022-07-28T05:28:27.526Z,99884.72
2022-07-28T05:30:57.879Z,99887.16
2022-07-28T05:33:29.042Z,99883.38
2022-07-28T05:36:00.762Z,99882.28
2022-07-28T05:38:30.429Z,99883.91
2022-07-28T05:40:59.209Z,99882.00
2022-07-28T05:43:27.807Z,99887.09
2022-07-28T05:45:57.938Z,99884.19
2022-07-28T05:48:26.686Z,99896.50
2022-07-28T05:50:55.533Z,99902.66
2022-07-28T05:53:24.701Z,99890.81
2022-07-28T05:55:59.579Z,99895.13
2022-07-28T05:58:30.583Z,99896.72
2022-07-28T06:01:02.611Z,99894.53
2022-07-28T06:03:38.447Z,99895.06
2022-07-28T06:06:16.105Z,99890.25
2022-07-28T06:08:47.805Z,99889.16
2022-07-28T06:11:22.846Z,99895.84
2022-07-28T06:13:53.132Z,99903.03
2022-07-28T06:16:24.004Z,99899.00
2022-07-28T06:18:53.255Z,99893.84
2022-07-28T06:21:24.495Z,99894.34
2022-07-28T06:23:53.293Z,99893.78
2022-07-28T06:26:23.837Z,99889.75
2022-07-28T06:28:53.189Z,99892.94
2022-07-28T06:31:23.277Z,99890.78
2022-07-28T06:33:51.965Z,99893.16
2022-07-28T06:36:20.957Z,99895.28
2022-07-28T06:38:49.696Z,99887.47
2022-07-28T06:41:18.420Z,99890.16
2022-07-28T06:43:47.081Z,99890.66
2022-07-28T06:46:19.413Z,99895.44
2022-07-28T06:48:49.735Z,99890.31
2022-07-28T06:51:20.198Z,99890.53
2022-07-28T06:53:49.499Z,99884.03
2022-07-28T06:56:21.603Z,99883.16
2022-07-28T06:58:52.255Z,99880.44
2022-07-28T07:01:21.118Z,99881.97
2022-07-28T07:03:51.411Z,99881.38
2022-07-28T07:06:20.178Z,99888.25
2022-07-28T07:08:48.964Z,99895.69
2022-07-28T07:11:17.686Z,99894.50
2022-07-28T07:13:46.390Z,99892.56
2022-07-28T07:16:15.095Z,99885.75
2022-07-28T07:18:43.816Z,99886.97
2022-07-28T07:21:13.874Z,99894.69
2022-07-28T07:23:42.545Z,99876.31
2022-07-28T07:26:11.194Z,99881.84
2022-07-28T07:28:41.843Z,99885.53
2022-07-28T07:31:10.555Z,99885.47
2022-07-28T07:33:39.255Z,99890.50
2022-07-28T07:36:08.404Z,99879.63
2022-07-28T07:38:38.864Z,99881.97
2022-07-28T07:41:07.771Z,99886.97
2022-07-28T07:43:36.479Z,99882.59
2022-07-28T07:46:05.274Z,99885.50
2022-07-28T07:48:34.158Z,99882.69
2022-07-28T07:51:02.868Z,99881.31
2022-07-28T07:53:31.586Z,99874.56
2022-07-28T07:56:01.778Z,99867.28
2022-07-28T07:58:30.620Z,99871.78
2022-07-28T08:00:59.255Z,99875.47
2022-07-28T08:03:27.889Z,99874.56
2022-07-28T08:05:57.766Z,99878.31
2022-07-28T08:08:26.490Z,99873.94
2022-07-28T08:10:55.156Z,99871.44
2022-07-28T08:13:25.240Z,99878.63
2022-07-28T08:15:54.151Z,99879.63
2022-07-28T08:18:22.934Z,99868.25
2022-07-28T08:20:51.576Z,99871.94
2022-07-28T08:23:25.835Z,99876.16
2022-07-28T08:25:55.224Z,99874.44
2022-07-28T08:28:25.314Z,99877.84
2022-07-28T08:30:54.055Z,99862.97
2022-07-28T08:33:22.772Z,99871.78
2022-07-28T08:35:51.737Z,99863.56
2022-07-28T08:38:20.440Z,99858.91
2022-07-28T08:40:52.978Z,99868.19
2022-07-28T08:43:35.352Z,99860.31
2022-07-28T08:46:07.185Z,99857.50
2022-07-28T08:48:38.408Z,99859.28
2022-07-28T08:51:11.199Z,99854.59
2022-07-28T08:53:42.172Z,99852.56
2022-07-28T08:56:16.303Z,99850.75
2022-07-28T08:58:46.351Z,99853.53
2022-07-28T09:01:15.067Z,99849.00
2022-07-28T09:03:44.272Z,99849.59
2022-07-28T09:06:13.304Z,99846.97
2022-07-28T09:08:43.636Z,99855.94
2022-07-28T09:11:12.497Z,99858.69
2022-07-28T09:13:41.236Z,99847.47
2022-07-28T09:16:11.727Z,99855.31
2022-07-28T09:18:40.895Z,99846.47
2022-07-28T09:21:09.606Z,99847.31
2022-07-28T09:23:46.257Z,99841.97
2022-07-28T09:26:15.330Z,99842.34
2022-07-28T09:28:52.864Z,99838.09
2022-07-28T09:31:24.832Z,99837.31
2022-07-28T09:34:00.930Z,99836.59
2022-07-28T09:36:30.905Z,99829.91
2022-07-28T09:38:59.869Z,99828.34
2022-07-28T09:41:28.561Z,99832.19
2022-07-28T09:43:57.357Z,99822.53
2022-07-28T09:46:30.695Z,99823.38
2022-07-28T09:49:02.532Z,99815.91
2022-07-28T09:51:33.538Z,99818.63
2022-07-28T09:54:12.724Z,99802.25
2022-07-28T09:56:44.554Z,99798.00
2022-07-28T09:59:15.097Z,99807.38
2022-07-28T10:01:58.335Z,99806.88
2022-07-28T10:04:37.927Z,99802.59
2022-07-28T10:07:10.024Z,99810.72
2022-07-28T10:09:40.147Z,99799.44
2022-07-28T10:12:20.701Z,99793.22
2022-07-28T10:14:51.994Z,99794.66
2022-07-28T10:17:27.903Z,99784.94
2022-07-28T10:19:58.887Z,99784.44
2022-07-28T10:22:32.145Z,99780.91
2022-07-28T10:25:04.135Z,99785.84
2022-07-28T10:27:34.479Z,99782.94
2022-07-28T10:30:06.867Z,99781.69
2022-07-28T10:32:42.791Z,99772.59
2022-07-28T10:35:14.069Z,99776.72
2022-07-28T10:37:53.242Z,99767.28
2022-07-28T10:40:29.956Z,99769.50
2022-07-28T10:42:58.824Z,99783.31
2022-07-28T10:45:47.865Z,99781.53
2022-07-28T10:48:20.584Z,99774.69
2022-07-28T10:50:53.496Z,99771.00
2022-07-28T10:53:35.392Z,99767.97
2022-07-28T10:56:14.525Z,99764.63
2022-07-28T10:59:04.926Z,99763.00
2022-07-28T11:01:48.255Z,99767.47
2022-07-28T11:05:01.915Z,99765.06
2022-07-28T11:07:40.830Z,99759.47
2022-07-28T11:10:18.022Z,99755.03
2022-07-28T11:12:48.263Z,99762.81
2022-07-28T11:15:35.801Z,99760.88
2022-07-28T11:18:09.839Z,99759.09
2022-07-28T11:21:11.600Z,99755.59
2022-07-28T11:23:57.498Z,99758.16
2022-07-28T11:26:39.217Z,99753.97
2022-07-28T11:29:23.580Z,99738.19
2022-07-28T11:32:07.727Z,99741.81
2022-07-28T11:35:10.254Z,99750.44
2022-07-28T11:38:12.954Z,99748.63
2022-07-28T11:40:44.467Z,99739.66
2022-07-28T11:43:38.888Z,99729.06
2022-07-28T11:46:25.372Z,99726.97
2022-07-28T11:49:29.720Z,99719.41
2022-07-28T11:52:24.397Z,99719.03
2022-07-28T11:54:58.526Z,99726.75
2022-07-28T11:57:29.438Z,99728.47
2022-07-28T12:00:04.143Z,99721.38
2022-07-28T12:02:36.239Z,99718.13
2022-07-28T12:05:14.524Z,99720.28
2022-07-28T12:07:50.178Z,99712.72
2022-07-28T12:10:54.040Z,99706.19
2022-07-28T12:13:29.196Z,99705.50
2022-07-28T12:15:58.296Z,99700.53
2022-07-28T12:18:29.201Z,99694.44
2022-07-28T12:21:04.587Z,99702.38
2022-07-28T12:23:49.551Z,99703.75
2022-07-28T12:26:41.038Z,99699.59
2022-07-28T12:29:13.370Z,99692.00
2022-07-28T12:31:55.613Z,99690.19
2022-07-28T12:34:28.642Z,99695.53
2022-07-28T12:37:02.197Z,99698.38
2022-07-28T12:39:32.534Z,99686.47
2022-07-28T12:42:05.392Z,99676.97
2022-07-28T12:44:39.086Z,99674.81
2022-07-28T12:47:10.914Z,99675.84
2022-07-28T12:49:41.179Z,99683.00
2022-07-28T12:52:18.118Z,99676.53
2022-07-28T12:54:54.384Z,99662.59
2022-07-28T12:57:49.859Z,99668.81
2022-07-28T13:00:24.650Z,99661.13
2022-07-28T13:02:57.655Z,99662.38
2022-07-28T13:05:54.804Z,99669.03
2022-07-28T13:08:24.378Z,99664.06
2022-07-28T13:10:57.433Z,99670.88
2022-07-28T13:13:29.371Z,99662.47
2022-07-28T13:16:15.695Z,99662.22
2022-07-28T13:18:46.498Z,99664.72
2022-07-28T13:21:16.723Z,99669.88
2022-07-28T13:23:45.866Z,99664.22
2022-07-28T13:26:14.569Z,99653.81
2022-07-28T13:28:44.623Z,99643.72
2022-07-28T13:31:13.506Z,99650.88
2022-07-28T13:33:42.250Z,99645.88
2022-07-28T13:36:11.124Z,99638.59
2022-07-28T13:38:40.477Z,99652.41
2022-07-28T13:41:09.181Z,99651.34
2022-07-28T13:43:38.061Z,99643.66
2022-07-28T13:46:08.593Z,99647.25
2022-07-28T13:48:57.618Z,99633.75
2022-07-28T13:51:26.889Z,99632.38
2022-07-28T13:53:56.468Z,99630.53
2022-07-28T13:56:25.741Z,99630.19
2022-07-28T13:58:54.408Z,99628.28
2022-07-28T14:01:25.326Z,99622.47
2022-07-28T14:03:58.365Z,99625.97
2022-07-28T14:06:27.651Z,99624.81
2022-07-28T14:08:56.889Z,99616.66
2022-07-28T14:11:25.796Z,99625.66
2022-07-28T14:13:54.831Z,99621.00
2022-07-28T14:16:25.699Z,99621.00
2022-07-28T14:18:54.873Z,99615.97
2022-07-28T14:21:23.786Z,99617.13
2022-07-28T14:23:52.532Z,99609.31
2022-07-28T14:26:35.594Z,99618.59
2022-07-28T14:29:11.358Z,99609.22
2022-07-28T14:31:41.995Z,99603.34
2022-07-28T14:34:10.942Z,99612.28
2022-07-28T14:36:40.043Z,99608.41
2022-07-28T14:39:12.395Z,99606.84
2022-07-28T14:41:42.731Z,99600.16
2022-07-28T14:44:15.384Z,99597.81
2022-07-28T14:46:45.801Z,99601.22
2022-07-28T14:49:14.599Z,99596.56
2022-07-28T14:51:44.900Z,99584.09
2022-07-28T14:54:14.108Z,99594.53
2022-07-28T14:56:42.941Z,99604.63
2022-07-28T14:59:11.759Z,99593.66
2022-07-28T15:01:40.538Z,99593.22
2022-07-28T15:04:12.677Z,99599.34
2022-07-28T15:06:41.958Z,99593.47
2022-07-28T15:09:10.742Z,99609.34
2022-07-28T15:11:41.257Z,99600.72
2022-07-28T15:14:10.072Z,99597.59
2022-07-28T15:16:40.061Z,99595.97
2022-07-28T15:19:10.636Z,99608.78
2022-07-28T15:21:40.708Z,99608.78
2022-07-28T15:24:10.681Z,99614.59
2022-07-28T15:26:39.432Z,99609.94
2022-07-28T15:29:08.857Z,99611.50
2022-07-28T15:31:37.860Z,99605.28
2022-07-28T15:34:09.738Z,99608.78
2022-07-28T15:36:39.175Z,99600.63
2022-07-28T15:39:09.362Z,99586.72
2022-07-28T15:41:38.071Z,99580.47
2022-07-28T15:44:07.922Z,99594.41
2022-07-28T15:46:36.638Z,99581.97
2022-07-28T15:49:10.503Z,99577.66
2022-07-28T15:51:40.919Z,99576.06
2022-07-28T15:54:10.257Z,99566.69
2022-07-28T15:56:39.162Z,99567.13
2022-07-28T15:59:09.235Z,99571.78
2022-07-28T16:01:44.999Z,99572.91
2022-07-28T16:04:16.206Z,99570.53
2022-07-28T16:07:02.629Z,99563.97
2022-07-28T16:09:45.574Z,99562.03
2022-07-28T16:12:16.422Z,99558.53
2022-07-28T16:14:45.272Z,99548.44
2022-07-28T16:17:14.134Z,99550.47
2022-07-28T16:19:50.009Z,99546.84
2022-07-28T16:22:20.120Z,99561.34
2022-07-28T16:24:50.946Z,99561.78
2022-07-28T16:27:19.757Z,99555.19
2022-07-28T16:29:49.570Z,99551.78
2022-07-28T16:32:18.414Z,99547.03
2022-07-28T16:34:49.812Z,99543.63
2022-07-28T16:37:19.844Z,99540.22
2022-07-28T16:39:49.650Z,99535.94
2022-07-28T16:42:18.613Z,99536.81
2022-07-28T16:44:47.986Z,99534.50
2022-07-28T16:47:17.199Z,99534.97
2022-07-28T16:49:46.456Z,99530.31
2022-07-28T16:52:16.972Z,99525.66
2022-07-28T16:54:45.916Z,99523.72
2022-07-28T16:57:16.484Z,99526.09
2022-07-28T16:59:48.515Z,99528.38
2022-07-28T17:02:19.229Z,99522.50
2022-07-28T17:04:48.921Z,99509.59
2022-07-28T17:07:19.626Z,99513.47
2022-07-28T17:09:48.335Z,99509.84
2022-07-28T17:12:17.019Z,99516.44
2022-07-28T17:14:45.794Z,99512.50
2022-07-28T17:17:14.509Z,99517.50
2022-07-28T17:19:46.540Z,99523.72
2022-07-28T17:22:16.384Z,99530.63
2022-07-28T17:24:48.431Z,99520.13
2022-07-28T17:27:37.871Z,99525.09
2022-07-28T17:30:07.426Z,99526.94
2022-07-28T17:32:36.172Z,99527.28
2022-07-28T17:35:05.514Z,99521.75
2022-07-28T17:37:34.235Z,99524.78
2022-07-28T17:40:04.832Z,99529.00
2022-07-28T17:42:34.366Z,99525.03
2022-07-28T17:45:03.085Z,99524.25
2022-07-28T17:47:35.986Z,99534.34
2022-07-28T17:50:07.376Z,99533.88
2022-07-28T17:52:36.317Z,99530.75
2022-07-28T17:55:24.921Z,99540.38
2022-07-28T17:57:56.334Z,99541.41
2022-07-28T18:00:25.119Z,99549.91
2022-07-28T18:02:53.831Z,99553.31
2022-07-28T18:05:22.567Z,99547.75
2022-07-28T18:07:54.798Z,99553.56
2022-07-28T18:10:27.695Z,99547.66
2022-07-28T18:12:56.337Z,99552.66
2022-07-28T18:15:25.941Z,99558.00
2022-07-28T18:17:56.106Z,99564.91
2022-07-28T18:20:25.605Z,99569.91
2022-07-28T18:22:54.593Z,99569.00
2022-07-28T18:25:23.278Z,99572.41
2022-07-28T18:27:53.883Z,99572.31
2022-07-28T18:30:23.236Z,99574.94
2022-07-28T18:32:52.627Z,99575.09
2022-07-28T18:35:22.567Z,99572.28
2022-07-28T18:37:51.923Z,99574.91
2022-07-28T18:40:21.956Z,99572.44
2022-07-28T18:42:52.940Z,99573.91
2022-07-28T18:45:21.891Z,99576.84
2022-07-28T18:47:50.552Z,99572.88
2022-07-28T18:50:30.660Z,99569.28
2022-07-28T18:53:00.972Z,99574.94
2022-07-28T18:55:29.825Z,99581.06
2022-07-28T18:57:59.850Z,99569.28
2022-07-28T19:00:28.863Z,99568.38
2022-07-28T19:02:57.746Z,99572.91
2022-07-28T19:05:26.782Z,99572.78
2022-07-28T19:08:05.516Z,99564.84
2022-07-28T19:10:34.337Z,99569.03
2022-07-28T19:13:04.710Z,99574.34
2022-07-28T19:15:38.160Z,99578.84
2022-07-28T19:18:10.536Z,99569.03
2022-07-28T19:20:40.885Z,99578.97
2022-07-28T19:23:09.602Z,99578.06
2022-07-28T19:25:39.833Z,99584.16
2022-07-28T19:28:09.994Z,99585.19
2022-07-28T19:30:38.780Z,99581.88
2022-07-28T19:33:07.461Z,99586.53
2022-07-28T19:35:36.331Z,99584.47
2022-07-28T19:38:05.026Z,99585.81
2022-07-28T19:40:33.777Z,99586.47
2022-07-28T19:43:08.247Z,99587.47
2022-07-28T19:45:42.398Z,99589.25
2022-07-28T19:48:18.201Z,99590.28
2022-07-28T19:50:53.686Z,99584.72
2022-07-28T19:53:32.380Z,99581.09
2022-07-28T19:56:18.042Z,99589.00
2022-07-28T19:58:54.930Z,99593.81
2022-07-28T20:01:39.021Z,99604.53
2022-07-28T20:04:24.613Z,99609.81
2022-07-28T20:07:15.481Z,99612.41
2022-07-28T20:10:04.123Z,99619.59
2022-07-28T20:12:43.403Z,99614.84
2022-07-28T20:15:25.865Z,99626.03
2022-07-28T20:18:07.911Z,99631.75
2022-07-28T20:20:50.668Z,99631.63
2022-07-28T20:23:33.083Z,99633.09
2022-07-28T20:26:27.177Z,99629.91
2022-07-28T20:29:10.590Z,99641.38
2022-07-28T20:32:09.920Z,99641.59
2022-07-28T20:35:07.374Z,99643.38
2022-07-28T20:38:14.713Z,99637.81
2022-07-28T20:40:52.589Z,99635.28
2022-07-28T20:43:23.807Z,99637.88
2022-07-28T20:46:10.423Z,99650.47
2022-07-28T20:48:54.467Z,99643.34
2022-07-28T20:51:40.089Z,99644.00
2022-07-28T20:54:35.570Z,99648.34
2022-07-28T20:57:19.396Z,99649.00
2022-07-28T20:59:53.816Z,99660.47
2022-07-28T21:02:24.827Z,99661.16
2022-07-28T21:04:56.321Z,99667.22
2022-07-28T21:08:00.682Z,99663.06
2022-07-28T21:10:38.442Z,99684.91
2022-07-28T21:13:22.422Z,99677.75
2022-07-28T21:16:00.323Z,99683.00
2022-07-28T21:18:32.837Z,99682.84
2022-07-28T21:21:01.856Z,99681.63
2022-07-28T21:23:31.952Z,99681.47
2022-07-28T21:26:00.667Z,99682.13
2022-07-28T21:28:46.653Z,99685.47
2022-07-28T21:31:15.304Z,99684.84
2022-07-28T21:33:43.945Z,99676.56
2022-07-28T21:36:12.598Z,99676.13
2022-07-28T21:38:42.883Z,99677.09
2022-07-28T21:41:11.694Z,99673.91
2022-07-28T21:43:40.585Z,99676.78
2022-07-28T21:46:09.355Z,99673.28
2022-07-28T21:48:38.071Z,99685.06
2022-07-28T21:51:18.217Z,99676.47
2022-07-28T21:53:52.924Z,99673.91
2022-07-28T21:56:21.793Z,99666.44
2022-07-28T21:58:51.125Z,99677.56
2022-07-28T22:01:19.950Z,99670.09
2022-07-28T22:03:48.711Z,99669.66
2022-07-28T22:06:17.503Z,99668.38
2022-07-28T22:08:46.225Z,99667.09
2022-07-28T22:11:16.310Z,99672.03
2022-07-28T22:13:45.138Z,99669.97
2022-07-28T22:16:13.863Z,99668.69
2022-07-28T22:18:42.725Z,99679.34
2022-07-28T22:21:11.441Z,99676.19
2022-07-28T22:23:42.081Z,99673.00
2022-07-28T22:26:10.823Z,99679.84
2022-07-28T22:28:40.873Z,99682.88
2022-07-28T22:31:10.339Z,99681.59
2022-07-28T22:33:39.888Z,99682.72
2022-07-28T22:36:09.651Z,99683.84
2022-07-28T22:38:38.711Z,99692.25
2022-07-28T22:41:07.396Z,99702.25
2022-07-28T22:43:36.111Z,99706.88
2022-07-28T22:46:06.225Z,99701.78
2022-07-28T22:48:35.009Z,99715.28
2022-07-28T22:51:03.835Z,99721.81
2022-07-28T22:53:32.524Z,99730.25
2022-07-28T22:56:01.387Z,99738.34
2022-07-28T22:58:30.030Z,99744.84
2022-07-28T23:00:59.408Z,99737.56
2022-07-28T23:03:31.073Z,99726.59
2022-07-28T23:06:00.707Z,99730.09
2022-07-28T23:08:29.789Z,99731.16
2022-07-28T23:10:58.535Z,99724.19
2022-07-28T23:13:27.211Z,99725.31
2022-07-28T23:15:56.101Z,99722.94
2022-07-28T23:18:24.786Z,99726.72
2022-07-28T23:20:55.029Z,99718.94
2022-07-28T23:23:23.844Z,99722.75
2022-07-28T23:25:52.561Z,99730.03
2022-07-28T23:28:21.224Z,99729.56
2022-07-28T23:30:52.068Z,99733.69
2022-07-28T23:33:56.813Z,99735.28
2022-07-28T23:36:25.983Z,99730.81
2022-07-28T23:38:56.997Z,99729.25
2022-07-28T23:41:26.389Z,99743.38
2022-07-28T23:43:55.410Z,99746.06
2022-07-28T23:46:24.479Z,99738.28
2022-07-28T23:48:53.248Z,99733.97
2022-07-28T23:51:47.195Z,99725.09
2022-07-28T23:54:14.287Z,99724.13
2022-07-28T23:56:43.878Z,99724.75
2022-07-28T23:59:14.347Z,99725.09
